sensor_id;sensor_type;location;lat;lon;timestamp;pressure;altitude;pressure_sealevel;temperature;humidity
32197;BME280;18697;42.770;23.400;2023-02-15T00:01:49;96848.75;;;9.38;54.44
32197;BME280;18697;42.770;23.400;2023-02-15T00:04:17;96844.88;;;9.72;51.29
32197;BME280;18697;42.770;23.400;2023-02-15T00:06:42;96843.03;;;10.01;51.77
32197;BME280;18697;42.770;23.400;2023-02-15T00:09:11;96857.34;;;10.36;48.51
32197;BME280;18697;42.770;23.400;2023-02-15T00:11:37;96850.72;;;10.46;49.27
32197;BME280;18697;42.770;23.400;2023-02-15T00:27:33;96857.50;;;12.18;45.58
32197;BME280;18697;42.770;23.400;2023-02-15T00:29:58;96870.63;;;12.05;45.02
32197;BME280;18697;42.770;23.400;2023-02-15T00:32:23;96855.28;;;11.88;46.71
32197;BME280;18697;42.770;23.400;2023-02-15T00:34:49;96862.28;;;11.80;45.53
32197;BME280;18697;42.770;23.400;2023-02-15T00:37:14;96863.22;;;11.73;46.79
32197;BME280;18697;42.770;23.400;2023-02-15T00:39:39;96870.91;;;11.40;46.07
32197;BME280;18697;42.770;23.400;2023-02-15T00:42:05;96864.81;;;11.16;46.78
32197;BME280;18697;42.770;23.400;2023-02-15T00:44:30;96859.13;;;10.91;47.66
32197;BME280;18697;42.770;23.400;2023-02-15T00:46:55;96858.47;;;10.54;48.21
32197;BME280;18697;42.770;23.400;2023-02-15T00:49:20;96858.13;;;10.36;47.88
32197;BME280;18697;42.770;23.400;2023-02-15T00:51:46;96853.94;;;10.44;51.32
32197;BME280;18697;42.770;23.400;2023-02-15T00:54:11;96872.88;;;10.49;50.14
32197;BME280;18697;42.770;23.400;2023-02-15T00:56:36;96868.34;;;10.23;48.49
32197;BME280;18697;42.770;23.400;2023-02-15T00:59:02;96856.66;;;9.96;50.67
32197;BME280;18697;42.770;23.400;2023-02-15T01:01:27;96852.69;;;9.77;51.34
32197;BME280;18697;42.770;23.400;2023-02-15T01:03:52;96868.13;;;9.78;50.73
32197;BME280;18697;42.770;23.400;2023-02-15T01:06:18;96854.41;;;10.07;51.58
32197;BME280;18697;42.770;23.400;2023-02-15T01:08:45;96863.25;;;10.38;49.49
32197;BME280;18697;42.770;23.400;2023-02-15T01:11:16;96863.41;;;10.63;51.01
32197;BME280;18697;42.770;23.400;2023-02-15T01:13:48;96855.34;;;10.52;48.95
32197;BME280;18697;42.770;23.400;2023-02-15T01:16:14;96860.03;;;10.72;48.07
32197;BME280;18697;42.770;23.400;2023-02-15T01:18:39;96853.59;;;10.75;47.51
32197;BME280;18697;42.770;23.400;2023-02-15T01:21:10;96849.94;;;10.94;47.55
32197;BME280;18697;42.770;23.400;2023-02-15T01:23:35;96847.22;;;11.07;46.44
32197;BME280;18697;42.770;23.400;2023-02-15T01:26:02;96858.16;;;10.98;46.51
32197;BME280;18697;42.770;23.400;2023-02-15T01:28:27;96850.81;;;10.91;46.76
32197;BME280;18697;42.770;23.400;2023-02-15T01:30:52;96838.81;;;10.94;47.16
32197;BME280;18697;42.770;23.400;2023-02-15T01:33:18;96851.59;;;10.92;47.69
32197;BME280;18697;42.770;23.400;2023-02-15T01:35:45;96846.53;;;11.03;46.41
32197;BME280;18697;42.770;23.400;2023-02-15T01:38:11;96842.00;;;11.09;47.22
32197;BME280;18697;42.770;23.400;2023-02-15T01:40:37;96843.56;;;11.10;47.04
32197;BME280;18697;42.770;23.400;2023-02-15T01:43:09;96845.66;;;11.06;47.05
32197;BME280;18697;42.770;23.400;2023-02-15T01:45:35;96854.34;;;11.08;46.13
32197;BME280;18697;42.770;23.400;2023-02-15T01:50:41;96837.22;;;11.09;46.53
32197;BME280;18697;42.770;23.400;2023-02-15T01:55:43;96818.63;;;11.06;48.58
32197;BME280;18697;42.770;23.400;2023-02-15T01:58:09;96829.59;;;10.97;47.06
32197;BME280;18697;42.770;23.400;2023-02-15T02:00:35;96831.84;;;11.02;48.43
32197;BME280;18697;42.770;23.400;2023-02-15T02:03:00;96832.50;;;11.35;47.34
32197;BME280;18697;42.770;23.400;2023-02-15T02:05:27;96831.38;;;11.33;47.67
32197;BME280;18697;42.770;23.400;2023-02-15T02:07:55;96835.34;;;11.19;44.03
32197;BME280;18697;42.770;23.400;2023-02-15T02:10:22;96827.81;;;11.32;48.03
32197;BME280;18697;42.770;23.400;2023-02-15T02:12:51;96834.19;;;11.04;48.24
32197;BME280;18697;42.770;23.400;2023-02-15T02:15:18;96832.44;;;11.10;48.10
32197;BME280;18697;42.770;23.400;2023-02-15T02:23:13;96848.94;;;9.08;48.73
32197;BME280;18697;42.770;23.400;2023-02-15T02:42:11;96840.88;;;9.73;51.33
32197;BME280;18697;42.770;23.400;2023-02-15T02:44:49;96838.03;;;9.76;49.93
32197;BME280;18697;42.770;23.400;2023-02-15T02:50:06;96839.59;;;10.78;49.49
32197;BME280;18697;42.770;23.400;2023-02-15T02:55:02;96850.81;;;10.59;47.16
32197;BME280;18697;42.770;23.400;2023-02-15T02:57:30;96850.34;;;10.11;48.50
32197;BME280;18697;42.770;23.400;2023-02-15T02:59:59;96857.59;;;9.89;48.43
32197;BME280;18697;42.770;23.400;2023-02-15T03:02:32;96855.78;;;9.63;50.39
32197;BME280;18697;42.770;23.400;2023-02-15T03:05:02;96856.50;;;9.27;49.42
32197;BME280;18697;42.770;23.400;2023-02-15T03:07:30;96872.84;;;9.21;51.03
32197;BME280;18697;42.770;23.400;2023-02-15T03:09:58;96873.41;;;8.70;49.58
32197;BME280;18697;42.770;23.400;2023-02-15T03:12:29;96872.31;;;9.07;52.49
32197;BME280;18697;42.770;23.400;2023-02-15T03:15:20;96871.88;;;9.51;51.62
32197;BME280;18697;42.770;23.400;2023-02-15T03:17:55;96872.66;;;9.52;50.22
32197;BME280;18697;42.770;23.400;2023-02-15T03:20:29;96866.59;;;9.93;50.51
32197;BME280;18697;42.770;23.400;2023-02-15T03:23:01;96865.09;;;10.08;49.64
32197;BME280;18697;42.770;23.400;2023-02-15T03:25:42;96872.63;;;10.60;49.62
32197;BME280;18697;42.770;23.400;2023-02-15T03:28:13;96870.63;;;10.08;47.55
32197;BME280;18697;42.770;23.400;2023-02-15T03:30:42;96874.59;;;10.43;49.70
32197;BME280;18697;42.770;23.400;2023-02-15T03:33:09;96871.03;;;10.43;48.05
32197;BME280;18697;42.770;23.400;2023-02-15T03:35:45;96879.72;;;9.73;43.92
32197;BME280;18697;42.770;23.400;2023-02-15T03:38:18;96873.97;;;9.24;47.81
32197;BME280;18697;42.770;23.400;2023-02-15T03:40:46;96872.25;;;8.91;50.44
32197;BME280;18697;42.770;23.400;2023-02-15T03:46:29;96871.50;;;9.49;50.78
32197;BME280;18697;42.770;23.400;2023-02-15T03:48:56;96867.75;;;9.96;50.75
32197;BME280;18697;42.770;23.400;2023-02-15T03:51:32;96865.25;;;10.37;49.43
32197;BME280;18697;42.770;23.400;2023-02-15T03:54:00;96863.31;;;10.50;49.82
32197;BME280;18697;42.770;23.400;2023-02-15T03:56:26;96866.03;;;10.38;48.71
32197;BME280;18697;42.770;23.400;2023-02-15T03:58:52;96858.91;;;10.20;47.63
32197;BME280;18697;42.770;23.400;2023-02-15T04:02:10;96874.97;;;10.09;46.75
32197;BME280;18697;42.770;23.400;2023-02-15T04:04:46;96870.22;;;10.10;46.99
32197;BME280;18697;42.770;23.400;2023-02-15T04:07:12;96880.44;;;10.33;47.70
32197;BME280;18697;42.770;23.400;2023-02-15T04:09:38;96885.50;;;10.18;45.55
32197;BME280;18697;42.770;23.400;2023-02-15T04:12:22;96876.47;;;10.14;45.86
32197;BME280;18697;42.770;23.400;2023-02-15T04:14:48;96876.44;;;9.98;47.04
32197;BME280;18697;42.770;23.400;2023-02-15T04:17:32;96889.56;;;10.13;46.25
32197;BME280;18697;42.770;23.400;2023-02-15T04:19:57;96884.41;;;10.64;46.22
32197;BME280;18697;42.770;23.400;2023-02-15T04:22:41;96894.50;;;10.74;45.98
32197;BME280;18697;42.770;23.400;2023-02-15T04:25:25;96897.78;;;11.02;46.82
32197;BME280;18697;42.770;23.400;2023-02-15T04:27:51;96900.06;;;10.91;45.63
32197;BME280;18697;42.770;23.400;2023-02-15T04:30:20;96910.72;;;11.37;45.70
32197;BME280;18697;42.770;23.400;2023-02-15T04:32:46;96913.31;;;11.44;44.37
32197;BME280;18697;42.770;23.400;2023-02-15T04:35:12;96906.38;;;11.81;44.10
32197;BME280;18697;42.770;23.400;2023-02-15T04:37:38;96909.94;;;11.82;43.62
32197;BME280;18697;42.770;23.400;2023-02-15T04:40:05;96913.59;;;11.92;43.09
32197;BME280;18697;42.770;23.400;2023-02-15T04:42:30;96905.19;;;12.21;42.61
32197;BME280;18697;42.770;23.400;2023-02-15T04:44:56;96905.56;;;12.48;43.25
32197;BME280;18697;42.770;23.400;2023-02-15T04:47:21;96913.34;;;12.28;43.08
32197;BME280;18697;42.770;23.400;2023-02-15T04:49:46;96914.31;;;12.08;41.44
32197;BME280;18697;42.770;23.400;2023-02-15T04:52:12;96913.78;;;12.39;41.27
32197;BME280;18697;42.770;23.400;2023-02-15T04:54:38;96925.25;;;12.28;42.27
32197;BME280;18697;42.770;23.400;2023-02-15T04:57:04;96921.00;;;12.11;41.51
32197;BME280;18697;42.770;23.400;2023-02-15T04:59:30;96918.81;;;12.57;42.39
32197;BME280;18697;42.770;23.400;2023-02-15T05:01:56;96924.81;;;12.68;39.70
32197;BME280;18697;42.770;23.400;2023-02-15T05:04:21;96919.03;;;12.37;42.68
32197;BME280;18697;42.770;23.400;2023-02-15T05:06:46;96924.56;;;12.88;43.06
32197;BME280;18697;42.770;23.400;2023-02-15T05:09:12;96930.44;;;13.28;42.05
32197;BME280;18697;42.770;23.400;2023-02-15T05:11:37;96929.59;;;13.40;41.93
32197;BME280;18697;42.770;23.400;2023-02-15T05:14:02;96933.34;;;13.24;39.30
32197;BME280;18697;42.770;23.400;2023-02-15T05:16:28;96931.19;;;13.63;41.77
32197;BME280;18697;42.770;23.400;2023-02-15T05:18:53;96936.16;;;12.99;39.94
32197;BME280;18697;42.770;23.400;2023-02-15T05:21:19;96941.72;;;13.11;41.24
32197;BME280;18697;42.770;23.400;2023-02-15T05:23:44;96941.03;;;13.33;41.31
32197;BME280;18697;42.770;23.400;2023-02-15T05:26:11;96939.66;;;13.37;41.76
32197;BME280;18697;42.770;23.400;2023-02-15T05:28:55;96946.34;;;13.40;40.63
32197;BME280;18697;42.770;23.400;2023-02-15T05:31:21;96949.84;;;13.66;41.50
32197;BME280;18697;42.770;23.400;2023-02-15T05:33:46;96952.97;;;13.33;41.28
32197;BME280;18697;42.770;23.400;2023-02-15T05:36:12;96953.38;;;13.44;39.54
32197;BME280;18697;42.770;23.400;2023-02-15T05:38:37;96954.56;;;12.83;40.39
32197;BME280;18697;42.770;23.400;2023-02-15T05:41:07;96952.88;;;12.23;41.36
32197;BME280;18697;42.770;23.400;2023-02-15T05:43:33;96948.03;;;11.85;44.73
32197;BME280;18697;42.770;23.400;2023-02-15T05:45:59;96961.69;;;11.34;40.84
32197;BME280;18697;42.770;23.400;2023-02-15T05:48:26;96950.25;;;10.67;45.19
32197;BME280;18697;42.770;23.400;2023-02-15T05:51:12;96942.13;;;10.40;50.45
32197;BME280;18697;42.770;23.400;2023-02-15T05:53:38;96963.38;;;11.90;50.67
32197;BME280;18697;42.770;23.400;2023-02-15T05:56:05;96965.72;;;11.91;42.91
32197;BME280;18697;42.770;23.400;2023-02-15T05:58:35;96960.81;;;11.21;45.41
32197;BME280;18697;42.770;23.400;2023-02-15T06:01:09;96958.78;;;10.40;45.99
32197;BME280;18697;42.770;23.400;2023-02-15T06:03:34;96967.66;;;9.76;49.00
32197;BME280;18697;42.770;23.400;2023-02-15T06:06:00;96979.22;;;9.31;45.77
32197;BME280;18697;42.770;23.400;2023-02-15T06:08:25;96966.88;;;8.89;51.72
32197;BME280;18697;42.770;23.400;2023-02-15T06:10:51;96959.94;;;8.50;52.90
32197;BME280;18697;42.770;23.400;2023-02-15T06:13:16;96969.16;;;8.13;48.86
32197;BME280;18697;42.770;23.400;2023-02-15T06:15:41;96979.72;;;7.91;51.53
32197;BME280;18697;42.770;23.400;2023-02-15T06:18:07;96985.16;;;7.65;53.29
32197;BME280;18697;42.770;23.400;2023-02-15T06:20:32;96982.47;;;7.91;57.87
32197;BME280;18697;42.770;23.400;2023-02-15T06:22:58;96987.16;;;8.25;56.26
32197;BME280;18697;42.770;23.400;2023-02-15T06:25:23;96986.28;;;8.89;55.36
32197;BME280;18697;42.770;23.400;2023-02-15T06:27:49;96988.44;;;9.87;55.84
32197;BME280;18697;42.770;23.400;2023-02-15T06:30:15;96985.25;;;9.89;53.45
32197;BME280;18697;42.770;23.400;2023-02-15T06:32:40;96975.41;;;11.25;52.51
32197;BME280;18697;42.770;23.400;2023-02-15T06:35:06;96971.56;;;11.51;48.75
32197;BME280;18697;42.770;23.400;2023-02-15T06:37:32;96969.16;;;11.82;48.43
32197;BME280;18697;42.770;23.400;2023-02-15T06:39:57;96974.31;;;11.97;47.58
32197;BME280;18697;42.770;23.400;2023-02-15T06:42:23;96966.63;;;12.55;48.20
32197;BME280;18697;42.770;23.400;2023-02-15T06:44:49;96967.50;;;13.03;47.14
32197;BME280;18697;42.770;23.400;2023-02-15T06:47:14;96966.06;;;12.98;45.42
32197;BME280;18697;42.770;23.400;2023-02-15T06:49:39;96969.41;;;13.06;46.46
32197;BME280;18697;42.770;23.400;2023-02-15T06:52:05;96973.06;;;13.63;43.37
32197;BME280;18697;42.770;23.400;2023-02-15T06:54:30;96976.56;;;13.20;42.37
32197;BME280;18697;42.770;23.400;2023-02-15T06:56:56;96967.91;;;13.74;42.40
32197;BME280;18697;42.770;23.400;2023-02-15T06:59:21;96968.41;;;14.25;43.70
32197;BME280;18697;42.770;23.400;2023-02-15T07:01:47;96974.59;;;14.42;43.40
32197;BME280;18697;42.770;23.400;2023-02-15T07:04:12;96965.81;;;14.31;42.22
32197;BME280;18697;42.770;23.400;2023-02-15T07:06:38;96962.34;;;14.70;41.74
32197;BME280;18697;42.770;23.400;2023-02-15T07:09:03;96958.16;;;15.33;42.18
32197;BME280;18697;42.770;23.400;2023-02-15T07:11:29;96969.72;;;14.95;40.73
32197;BME280;18697;42.770;23.400;2023-02-15T07:14:13;96968.34;;;15.00;40.32
32197;BME280;18697;42.770;23.400;2023-02-15T07:16:38;96979.03;;;15.51;40.36
32197;BME280;18697;42.770;23.400;2023-02-15T07:19:04;96975.19;;;15.75;39.87
32197;BME280;18697;42.770;23.400;2023-02-15T07:21:29;96978.78;;;15.94;38.21
32197;BME280;18697;42.770;23.400;2023-02-15T07:23:58;96980.63;;;16.16;39.77
32197;BME280;18697;42.770;23.400;2023-02-15T07:26:24;96972.38;;;16.30;39.35
32197;BME280;18697;42.770;23.400;2023-02-15T07:28:49;96965.72;;;16.61;38.78
32197;BME280;18697;42.770;23.400;2023-02-15T07:31:15;96974.00;;;16.64;38.86
32197;BME280;18697;42.770;23.400;2023-02-15T07:33:40;96967.34;;;16.95;37.96
32197;BME280;18697;42.770;23.400;2023-02-15T07:36:08;96964.06;;;16.96;37.82
32197;BME280;18697;42.770;23.400;2023-02-15T07:38:38;96961.94;;;17.15;37.43
32197;BME280;18697;42.770;23.400;2023-02-15T07:41:06;96967.09;;;17.40;37.51
32197;BME280;18697;42.770;23.400;2023-02-15T07:43:36;96964.75;;;17.39;37.62
32197;BME280;18697;42.770;23.400;2023-02-15T07:46:05;96972.06;;;17.46;36.64
32197;BME280;18697;42.770;23.400;2023-02-15T07:48:32;96970.31;;;17.24;35.78
32197;BME280;18697;42.770;23.400;2023-02-15T07:50:59;96968.75;;;17.23;37.09
32197;BME280;18697;42.770;23.400;2023-02-15T07:53:25;96962.88;;;17.12;37.22
32197;BME280;18697;42.770;23.400;2023-02-15T07:55:50;96967.00;;;17.02;36.53
32197;BME280;18697;42.770;23.400;2023-02-15T07:58:17;96966.47;;;16.80;35.99
32197;BME280;18697;42.770;23.400;2023-02-15T08:00:43;96956.00;;;17.13;36.83
32197;BME280;18697;42.770;23.400;2023-02-15T08:03:24;96952.50;;;17.27;37.40
32197;BME280;18697;42.770;23.400;2023-02-15T08:05:56;96960.16;;;17.27;37.87
32197;BME280;18697;42.770;23.400;2023-02-15T08:08:22;96962.34;;;17.23;36.57
32197;BME280;18697;42.770;23.400;2023-02-15T08:11:20;96959.22;;;17.54;36.46
32197;BME280;18697;42.770;23.400;2023-02-15T08:16:43;96955.31;;;17.51;36.01
32197;BME280;18697;42.770;23.400;2023-02-15T08:19:13;96957.09;;;17.72;36.63
32197;BME280;18697;42.770;23.400;2023-02-15T08:21:41;96955.66;;;17.77;36.08
32197;BME280;18697;42.770;23.400;2023-02-15T08:24:09;96960.31;;;17.80;34.91
32197;BME280;18697;42.770;23.400;2023-02-15T08:26:35;96958.75;;;16.47;35.55
32197;BME280;18697;42.770;23.400;2023-02-15T08:29:02;96942.97;;;15.89;39.69
32197;BME280;18697;42.770;23.400;2023-02-15T08:31:28;96946.22;;;16.75;38.03
32197;BME280;18697;42.770;23.400;2023-02-15T08:33:55;96955.63;;;16.54;36.33
32197;BME280;18697;42.770;23.400;2023-02-15T08:36:23;96948.75;;;15.58;39.97
32197;BME280;18697;42.770;23.400;2023-02-15T08:38:49;96949.75;;;15.24;40.45
32197;BME280;18697;42.770;23.400;2023-02-15T08:41:20;96947.66;;;14.35;38.57
32197;BME280;18697;42.770;23.400;2023-02-15T08:43:49;96945.31;;;14.56;42.44
32197;BME280;18697;42.770;23.400;2023-02-15T08:46:16;96948.31;;;14.08;40.82
32197;BME280;18697;42.770;23.400;2023-02-15T08:48:42;96953.44;;;13.88;43.12
32197;BME280;18697;42.770;23.400;2023-02-15T08:51:10;96948.28;;;13.30;41.91
32197;BME280;18697;42.770;23.400;2023-02-15T08:53:38;96949.84;;;13.31;41.39
32197;BME280;18697;42.770;23.400;2023-02-15T08:56:04;96948.78;;;14.16;41.68
32197;BME280;18697;42.770;23.400;2023-02-15T08:58:30;96948.00;;;12.90;43.92
32197;BME280;18697;42.770;23.400;2023-02-15T09:00:56;96952.47;;;12.75;44.60
32197;BME280;18697;42.770;23.400;2023-02-15T09:03:22;96959.72;;;12.47;43.03
32197;BME280;18697;42.770;23.400;2023-02-15T09:05:47;96966.28;;;11.86;43.77
32197;BME280;18697;42.770;23.400;2023-02-15T09:08:12;96959.81;;;12.31;47.77
32197;BME280;18697;42.770;23.400;2023-02-15T09:10:38;96956.25;;;12.43;48.71
32197;BME280;18697;42.770;23.400;2023-02-15T09:13:03;96960.75;;;13.38;43.99
32197;BME280;18697;42.770;23.400;2023-02-15T09:15:28;96949.69;;;13.47;43.52
32197;BME280;18697;42.770;23.400;2023-02-15T09:17:54;96957.38;;;13.78;44.86
32197;BME280;18697;42.770;23.400;2023-02-15T09:20:19;96950.78;;;14.06;43.02
32197;BME280;18697;42.770;23.400;2023-02-15T09:22:44;96950.22;;;13.55;41.83
32197;BME280;18697;42.770;23.400;2023-02-15T09:25:10;96948.69;;;13.41;43.42
32197;BME280;18697;42.770;23.400;2023-02-15T09:27:35;96952.22;;;13.07;43.84
32197;BME280;18697;42.770;23.400;2023-02-15T09:30:02;96954.03;;;12.89;42.12
32197;BME280;18697;42.770;23.400;2023-02-15T09:32:28;96958.06;;;12.49;44.04
32197;BME280;18697;42.770;23.400;2023-02-15T09:34:53;96950.34;;;12.66;43.62
32197;BME280;18697;42.770;23.400;2023-02-15T09:37:19;96949.13;;;12.67;44.08
32197;BME280;18697;42.770;23.400;2023-02-15T09:39:44;96950.78;;;12.39;42.66
32197;BME280;18697;42.770;23.400;2023-02-15T09:50:46;96933.72;;;12.25;44.00
32197;BME280;18697;42.770;23.400;2023-02-15T10:17:56;96905.59;;;11.36;47.63
32197;BME280;18697;42.770;23.400;2023-02-15T10:25:51;96907.16;;;11.08;44.73
32197;BME280;18697;42.770;23.400;2023-02-15T10:28:23;96901.09;;;10.80;47.68
32197;BME280;18697;42.770;23.400;2023-02-15T10:47:38;96876.44;;;10.66;47.05
32197;BME280;18697;42.770;23.400;2023-02-15T10:50:32;96875.66;;;10.82;46.92
32197;BME280;18697;42.770;23.400;2023-02-15T10:53:18;96872.97;;;9.74;47.83
32197;BME280;18697;42.770;23.400;2023-02-15T10:58:24;96874.00;;;10.00;48.26
32197;BME280;18697;42.770;23.400;2023-02-15T11:07:04;96869.31;;;10.65;46.74
32197;BME280;18697;42.770;23.400;2023-02-15T11:09:42;96876.72;;;9.83;47.73
32197;BME280;18697;42.770;23.400;2023-02-15T11:12:13;96872.19;;;9.73;48.54
32197;BME280;18697;42.770;23.400;2023-02-15T11:14:52;96870.88;;;9.98;49.11
32197;BME280;18697;42.770;23.400;2023-02-15T11:17:30;96866.63;;;10.78;47.48
32197;BME280;18697;42.770;23.400;2023-02-15T11:20:19;96865.22;;;10.70;47.13
32197;BME280;18697;42.770;23.400;2023-02-15T11:22:49;96857.34;;;10.68;46.80
32197;BME280;18697;42.770;23.400;2023-02-15T11:25:30;96851.09;;;10.64;46.00
32197;BME280;18697;42.770;23.400;2023-02-15T11:27:56;96859.38;;;10.97;45.85
32197;BME280;18697;42.770;23.400;2023-02-15T11:30:25;96857.72;;;11.28;44.55
32197;BME280;18697;42.770;23.400;2023-02-15T11:32:59;96867.09;;;11.05;46.88
32197;BME280;18697;42.770;23.400;2023-02-15T11:35:37;96865.59;;;11.17;46.13
32197;BME280;18697;42.770;23.400;2023-02-15T11:38:14;96858.53;;;10.83;46.03
32197;BME280;18697;42.770;23.400;2023-02-15T11:40:47;96856.88;;;11.73;46.92
32197;BME280;18697;42.770;23.400;2023-02-15T11:43:28;96842.34;;;11.11;46.02
32197;BME280;18697;42.770;23.400;2023-02-15T11:45:55;96848.06;;;11.33;48.60
32197;BME280;18697;42.770;23.400;2023-02-15T11:48:20;96838.69;;;11.14;46.48
32197;BME280;18697;42.770;23.400;2023-02-15T11:50:46;96840.03;;;10.93;47.57
32197;BME280;18697;42.770;23.400;2023-02-15T11:53:35;96836.72;;;10.98;46.51
32197;BME280;18697;42.770;23.400;2023-02-15T11:56:01;96836.31;;;11.41;48.27
32197;BME280;18697;42.770;23.400;2023-02-15T11:58:49;96833.13;;;11.14;46.03
32197;BME280;18697;42.770;23.400;2023-02-15T12:03:57;96831.78;;;11.18;45.44
32197;BME280;18697;42.770;23.400;2023-02-15T12:06:27;96828.13;;;11.22;47.78
32197;BME280;18697;42.770;23.400;2023-02-15T12:11:40;96825.44;;;11.18;45.96
32197;BME280;18697;42.770;23.400;2023-02-15T12:14:08;96814.97;;;11.51;46.44
32197;BME280;18697;42.770;23.400;2023-02-15T12:16:55;96816.84;;;11.41;47.14
32197;BME280;18697;42.770;23.400;2023-02-15T12:19:37;96814.56;;;10.95;45.89
32197;BME280;18697;42.770;23.400;2023-02-15T12:22:05;96812.03;;;11.00;48.04
32197;BME280;18697;42.770;23.400;2023-02-15T12:24:37;96807.50;;;11.06;46.12
32197;BME280;18697;42.770;23.400;2023-02-15T12:29:40;96810.88;;;11.14;45.85
32197;BME280;18697;42.770;23.400;2023-02-15T12:32:21;96803.50;;;11.07;45.98
32197;BME280;18697;42.770;23.400;2023-02-15T12:34:48;96798.72;;;11.08;45.26
32197;BME280;18697;42.770;23.400;2023-02-15T12:37:27;96802.75;;;11.19;45.55
32197;BME280;18697;42.770;23.400;2023-02-15T12:39:55;96792.38;;;11.07;46.57
32197;BME280;18697;42.770;23.400;2023-02-15T12:42:21;96800.09;;;11.29;45.73
32197;BME280;18697;42.770;23.400;2023-02-15T12:45:04;96793.03;;;11.40;45.68
32197;BME280;18697;42.770;23.400;2023-02-15T12:47:44;96796.69;;;11.37;44.62
32197;BME280;18697;42.770;23.400;2023-02-15T12:50:22;96790.50;;;11.59;45.26
32197;BME280;18697;42.770;23.400;2023-02-15T12:52:50;96789.75;;;11.29;45.06
32197;BME280;18697;42.770;23.400;2023-02-15T12:55:26;96785.09;;;11.26;44.72
32197;BME280;18697;42.770;23.400;2023-02-15T12:58:17;96790.78;;;11.35;44.71
32197;BME280;18697;42.770;23.400;2023-02-15T13:00:43;96781.13;;;11.52;45.67
32197;BME280;18697;42.770;23.400;2023-02-15T13:03:17;96790.09;;;11.73;44.29
32197;BME280;18697;42.770;23.400;2023-02-15T13:05:44;96782.31;;;11.93;43.62
32197;BME280;18697;42.770;23.400;2023-02-15T13:08:17;96781.41;;;11.96;45.09
32197;BME280;18697;42.770;23.400;2023-02-15T13:11:03;96772.66;;;11.85;43.39
32197;BME280;18697;42.770;23.400;2023-02-15T13:13:32;96775.44;;;11.85;44.83
32197;BME280;18697;42.770;23.400;2023-02-15T13:16:06;96775.19;;;12.05;45.28
32197;BME280;18697;42.770;23.400;2023-02-15T13:18:37;96776.41;;;12.04;43.15
32197;BME280;18697;42.770;23.400;2023-02-15T13:21:15;96772.41;;;11.92;43.90
32197;BME280;18697;42.770;23.400;2023-02-15T13:23:48;96779.53;;;11.80;43.42
32197;BME280;18697;42.770;23.400;2023-02-15T13:26:21;96779.19;;;11.91;44.50
32197;BME280;18697;42.770;23.400;2023-02-15T13:28:52;96782.09;;;12.00;43.43
32197;BME280;18697;42.770;23.400;2023-02-15T13:31:22;96772.16;;;12.12;46.32
32197;BME280;18697;42.770;23.400;2023-02-15T13:33:58;96771.72;;;12.01;43.10
32197;BME280;18697;42.770;23.400;2023-02-15T13:41:55;96774.47;;;11.63;44.09
32197;BME280;18697;42.770;23.400;2023-02-15T13:47:22;96790.69;;;11.80;44.06
32197;BME280;18697;42.770;23.400;2023-02-15T13:50:37;96779.06;;;11.69;43.65
32197;BME280;18697;42.770;23.400;2023-02-15T13:55:50;96783.59;;;11.50;44.84
32197;BME280;18697;42.770;23.400;2023-02-15T14:01:34;96786.63;;;10.85;45.20
32197;BME280;18697;42.770;23.400;2023-02-15T14:07:20;96798.53;;;10.70;46.03
32197;BME280;18697;42.770;23.400;2023-02-15T14:10:02;96801.38;;;10.37;46.57
32197;BME280;18697;42.770;23.400;2023-02-15T14:29:20;96818.69;;;10.41;46.45
32197;BME280;18697;42.770;23.400;2023-02-15T14:31:54;96811.31;;;10.51;46.56
32197;BME280;18697;42.770;23.400;2023-02-15T14:34:30;96821.91;;;10.72;47.12
32197;BME280;18697;42.770;23.400;2023-02-15T14:36:59;96813.78;;;10.94;45.93
32197;BME280;18697;42.770;23.400;2023-02-15T14:48:01;96805.88;;;10.93;45.57
32197;BME280;18697;42.770;23.400;2023-02-15T14:56:24;96808.19;;;10.16;49.45
32197;BME280;18697;42.770;23.400;2023-02-15T15:01:28;96816.69;;;10.09;48.88
32197;BME280;18697;42.770;23.400;2023-02-15T15:03:58;96819.53;;;10.06;50.60
32197;BME280;18697;42.770;23.400;2023-02-15T15:06:29;96817.00;;;9.95;48.22
32197;BME280;18697;42.770;23.400;2023-02-15T15:09:00;96815.78;;;9.96;48.85
32197;BME280;18697;42.770;23.400;2023-02-15T15:13:57;96810.44;;;10.05;50.37
32197;BME280;18697;42.770;23.400;2023-02-15T15:19:02;96810.41;;;10.25;50.19
32197;BME280;18697;42.770;23.400;2023-02-15T15:29:46;96814.47;;;10.98;49.57
32197;BME280;18697;42.770;23.400;2023-02-15T15:32:17;96818.31;;;11.17;47.92
32197;BME280;18697;42.770;23.400;2023-02-15T15:37:51;96826.56;;;11.20;50.39
32197;BME280;18697;42.770;23.400;2023-02-15T15:48:35;96830.97;;;11.47;47.88
32197;BME280;18697;42.770;23.400;2023-02-15T15:51:14;96829.94;;;10.99;51.37
32197;BME280;18697;42.770;23.400;2023-02-15T15:53:45;96835.81;;;11.30;48.23
32197;BME280;18697;42.770;23.400;2023-02-15T15:56:19;96836.56;;;11.18;49.23
32197;BME280;18697;42.770;23.400;2023-02-15T15:58:50;96836.41;;;10.47;46.30
32197;BME280;18697;42.770;23.400;2023-02-15T16:01:28;96838.13;;;10.74;49.70
32197;BME280;18697;42.770;23.400;2023-02-15T16:03:56;96839.88;;;10.68;50.22
32197;BME280;18697;42.770;23.400;2023-02-15T16:06:38;96840.13;;;10.73;52.25
32197;BME280;18697;42.770;23.400;2023-02-15T16:11:42;96843.69;;;11.19;49.75
32197;BME280;18697;42.770;23.400;2023-02-15T16:14:31;96849.03;;;10.36;48.01
32197;BME280;18697;42.770;23.400;2023-02-15T16:17:00;96855.31;;;9.84;47.13
32197;BME280;18697;42.770;23.400;2023-02-15T16:19:29;96858.84;;;9.29;48.63
32197;BME280;18697;42.770;23.400;2023-02-15T16:21:59;96850.44;;;9.12;54.62
32197;BME280;18697;42.770;23.400;2023-02-15T16:27:33;96852.25;;;10.14;55.18
32197;BME280;18697;42.770;23.400;2023-02-15T16:30:23;96856.34;;;11.07;54.53